Time;durP1;ratioP1;P1;durP2;ratioP2;P2;SDS_P1;SDS_P2;PMS_P1;PMS_P2;Temp;Humidity;BMP_temperature;BMP_pressure;BME280_temperature;BME280_humidity;BME280_pressure;Samples;Min_cycle;Max_cycle;Signal;HPM_P1;HPM_P2
2021/10/07 00:00:25;;;;;;;2.28;0.88;;;16.30;49.70;;;;;;6198637;28;20463;-78
2021/10/07 00:03:26;;;;;;;0.57;0.40;;;16.30;49.70;;;;;;6196058;28;20034;-80
2021/10/07 00:06:28;;;;;;;4.85;0.57;;;16.30;49.70;;;;;;6211213;28;20034;-80
2021/10/07 00:09:32;;;;;;;0.52;0.40;;;16.30;49.60;;;;;;6204163;28;20066;-80
2021/10/07 00:12:33;;;;;;;1.02;0.30;;;16.30;49.60;;;;;;6199002;28;20030;-80
2021/10/07 00:15:34;;;;;;;5.30;0.88;;;16.30;49.60;;;;;;6198655;28;20475;-79
2021/10/07 00:18:40;;;;;;;0.57;0.43;;;16.30;49.70;;;;;;6191849;28;20130;-79
2021/10/07 00:21:42;;;;;;;3.35;0.80;;;16.30;49.80;;;;;;6201372;28;20065;-79
2021/10/07 00:24:43;;;;;;;0.45;0.40;;;16.30;49.70;;;;;;6199587;28;20054;-79
2021/10/07 00:27:44;;;;;;;2.25;0.45;;;16.20;49.60;;;;;;6221485;28;20092;-80
2021/10/07 00:30:46;;;;;;;2.78;0.30;;;16.30;49.70;;;;;;6221410;28;20038;-78
2021/10/07 00:40:16;;;;;;;1.02;0.50;;;16.20;49.80;;;;;;6197228;28;20070;-78
2021/10/07 00:43:19;;;;;;;0.85;0.20;;;16.20;49.60;;;;;;6196569;28;20464;-78
2021/10/07 00:46:20;;;;;;;0.52;0.30;;;16.20;49.60;;;;;;6197862;28;20040;-78
2021/10/07 00:49:23;;;;;;;2.95;0.68;;;16.20;49.60;;;;;;6197826;28;20480;-77
2021/10/07 00:52:24;;;;;;;4.22;0.40;;;16.20;49.70;;;;;;6195468;28;20038;-77
2021/10/07 00:55:25;;;;;;;1.30;0.45;;;16.20;49.80;;;;;;6196824;28;20483;-78
2021/10/07 00:58:26;;;;;;;2.17;0.65;;;16.20;50.00;;;;;;6203088;28;20383;-79
2021/10/07 01:01:26;;;;;;;0.60;0.40;;;16.20;50.10;;;;;;6219804;28;20108;-78
2021/10/07 01:04:27;;;;;;;0.65;0.43;;;16.20;50.00;;;;;;6200534;28;20029;-78
2021/10/07 01:07:28;;;;;;;0.68;0.50;;;16.10;50.00;;;;;;6199960;28;20333;-79
2021/10/07 01:10:29;;;;;;;2.40;0.45;;;16.10;50.00;;;;;;6213434;28;20048;-79
2021/10/07 01:13:30;;;;;;;4.70;0.57;;;16.10;50.20;;;;;;6201186;28;20040;-79
2021/10/07 01:16:31;;;;;;;0.32;0.32;;;16.10;50.20;;;;;;6184973;28;20379;-79
2021/10/07 01:19:38;;;;;;;2.30;0.50;;;16.10;50.30;;;;;;6184667;28;20038;-79
2021/10/07 01:22:39;;;;;;;4.68;0.93;;;16.10;50.40;;;;;;6218356;28;20033;-78
2021/10/07 01:25:40;;;;;;;0.82;0.32;;;16.10;50.40;;;;;;6224035;28;20037;-79
2021/10/07 01:28:44;;;;;;;1.45;0.40;;;16.10;50.40;;;;;;6223632;28;20038;-79
2021/10/07 01:31:44;;;;;;;0.30;0.30;;;16.00;50.30;;;;;;6189900;28;20031;-79
2021/10/07 01:34:46;;;;;;;3.80;0.60;;;16.10;50.30;;;;;;6195317;28;20046;-79
2021/10/07 01:37:46;;;;;;;1.65;0.45;;;16.00;50.30;;;;;;6209921;28;20038;-78
2021/10/07 01:40:47;;;;;;;3.15;0.57;;;16.00;50.40;;;;;;6201627;28;20042;-79
2021/10/07 01:43:55;;;;;;;0.50;0.35;;;16.00;50.50;;;;;;6184402;28;20486;-78
2021/10/07 01:46:55;;;;;;;1.30;0.50;;;16.00;50.80;;;;;;6201826;28;20022;-79
2021/10/07 01:49:56;;;;;;;3.00;0.60;;;15.90;50.90;;;;;;6184101;28;20046;-78
2021/10/07 01:52:57;;;;;;;2.97;0.57;;;15.90;51.10;;;;;;6199443;28;20073;-78
2021/10/07 01:55:58;;;;;;;0.73;0.50;;;15.90;51.30;;;;;;6201375;28;20104;-78
2021/10/07 01:58:59;;;;;;;1.45;0.50;;;15.80;51.50;;;;;;6195826;28;20038;-79
2021/10/07 02:02:00;;;;;;;1.83;0.50;;;15.80;51.70;;;;;;6181455;28;20563;-79
2021/10/07 02:05:01;;;;;;;4.68;0.70;;;15.70;51.80;;;;;;6183907;28;20045;-79
2021/10/07 02:08:01;;;;;;;1.42;0.63;;;15.70;51.90;;;;;;6223329;28;20131;-79
2021/10/07 02:11:02;;;;;;;2.22;0.60;;;15.70;51.90;;;;;;6210868;28;20037;-78
2021/10/07 02:14:04;;;;;;;1.65;0.40;;;15.60;51.90;;;;;;6223849;28;20509;-79
2021/10/07 02:17:05;;;;;;;2.72;0.60;;;15.60;51.90;;;;;;6223327;28;20375;-79
2021/10/07 02:20:09;;;;;;;0.52;0.30;;;15.60;51.80;;;;;;6221316;28;20049;-79
2021/10/07 02:23:10;;;;;;;1.75;0.45;;;15.70;51.90;;;;;;6206116;28;20489;-78
2021/10/07 02:26:12;;;;;;;6.10;0.60;;;15.70;51.90;;;;;;6222732;28;20038;-79
2021/10/07 02:29:13;;;;;;;0.85;0.47;;;15.70;51.80;;;;;;6201819;28;20053;-79
2021/10/07 02:32:14;;;;;;;4.07;0.40;;;15.70;51.90;;;;;;6199362;28;20436;-78
2021/10/07 02:35:15;;;;;;;3.20;0.80;;;15.70;51.90;;;;;;6194749;28;20045;-78
2021/10/07 02:38:16;;;;;;;5.18;0.50;;;15.60;51.90;;;;;;6198760;28;20045;-79
2021/10/07 02:41:17;;;;;;;2.38;0.70;;;15.70;51.90;;;;;;6181555;28;20360;-79
2021/10/07 02:44:17;;;;;;;1.08;0.68;;;15.60;51.90;;;;;;6196396;28;20037;-78
2021/10/07 02:47:18;;;;;;;4.65;0.52;;;15.60;52.00;;;;;;6236407;28;20030;-79
2021/10/07 02:50:21;;;;;;;3.67;1.10;;;15.60;52.10;;;;;;6222308;28;20061;-79
2021/10/07 02:53:22;;;;;;;1.80;0.60;;;15.60;52.20;;;;;;6204156;28;20034;-79
2021/10/07 02:56:24;;;;;;;3.33;0.90;;;15.60;52.30;;;;;;6211075;28;20119;-78
2021/10/07 02:59:25;;;;;;;1.27;0.50;;;15.60;52.40;;;;;;6221963;28;20038;-79
2021/10/07 03:02:26;;;;;;;12.07;1.13;;;15.50;52.70;;;;;;6217172;28;20363;-78
2021/10/07 03:05:28;;;;;;;2.40;0.85;;;15.50;52.90;;;;;;6224319;28;20485;-78
2021/10/07 03:08:30;;;;;;;3.42;1.00;;;15.40;53.10;;;;;;6226841;28;20129;-79
2021/10/07 03:11:31;;;;;;;2.88;0.30;;;15.40;53.30;;;;;;6223617;28;20038;-79
2021/10/07 03:14:32;;;;;;;0.50;0.50;;;15.30;53.40;;;;;;6218825;28;20030;-78
2021/10/07 03:17:33;;;;;;;2.20;0.63;;;15.30;53.60;;;;;;6204758;28;20057;-78
2021/10/07 03:20:34;;;;;;;0.68;0.43;;;15.30;53.80;;;;;;6198427;28;20452;-79
2021/10/07 03:23:35;;;;;;;7.97;0.95;;;15.20;53.90;;;;;;6211873;28;20068;-79
2021/10/07 03:26:36;;;;;;;3.85;0.77;;;15.20;54.00;;;;;;6198066;28;20039;-79
2021/10/07 03:29:37;;;;;;;1.05;0.50;;;15.20;53.90;;;;;;6211119;28;20045;-79
2021/10/07 03:32:38;;;;;;;0.43;0.43;;;15.20;53.90;;;;;;6211646;28;20333;-79
2021/10/07 03:35:39;;;;;;;0.88;0.50;;;15.20;53.90;;;;;;6197344;28;20546;-80
2021/10/07 03:38:39;;;;;;;4.03;0.82;;;15.20;53.90;;;;;;6191398;28;20100;-79
2021/10/07 03:41:40;;;;;;;0.80;0.45;;;15.10;53.90;;;;;;6198073;28;20038;-79
2021/10/07 03:44:41;;;;;;;1.85;0.60;;;15.10;54.00;;;;;;6197000;28;20062;-79
2021/10/07 03:47:42;;;;;;;3.10;0.55;;;15.10;54.00;;;;;;6181857;28;20030;-79
2021/10/07 03:50:43;;;;;;;2.00;1.05;;;15.10;53.90;;;;;;6180840;28;20121;-79
2021/10/07 03:53:45;;;;;;;0.75;0.50;;;15.10;53.90;;;;;;6197093;28;20038;-79
2021/10/07 03:56:46;;;;;;;1.38;0.70;;;15.10;53.80;;;;;;6198967;28;20041;-78
2021/10/07 03:59:47;;;;;;;1.55;0.70;;;15.10;53.70;;;;;;6209706;28;20427;-78
2021/10/07 04:02:47;;;;;;;2.20;0.82;;;15.30;53.80;;;;;;6210914;28;20034;-78
2021/10/07 04:05:50;;;;;;;2.17;0.80;;;15.20;53.80;;;;;;6214220;28;20042;-79
2021/10/07 04:08:50;;;;;;;3.03;0.75;;;15.20;53.90;;;;;;6220711;28;20045;-79
2021/10/07 04:11:51;;;;;;;3.10;0.70;;;15.20;53.90;;;;;;6202965;28;20062;-79
2021/10/07 04:14:52;;;;;;;2.40;0.75;;;15.20;53.90;;;;;;6198813;28;20046;-79
2021/10/07 04:17:53;;;;;;;1.83;0.85;;;15.10;54.00;;;;;;6179575;28;20030;-79
2021/10/07 04:20:54;;;;;;;0.93;0.60;;;15.20;54.00;;;;;;6190524;28;20106;-79
2021/10/07 04:23:55;;;;;;;1.33;0.50;;;15.10;54.10;;;;;;6196849;28;20034;-79
2021/10/07 04:26:56;;;;;;;1.67;0.55;;;15.10;54.10;;;;;;6199706;28;20392;-78
2021/10/07 04:29:59;;;;;;;8.50;0.70;;;15.10;54.20;;;;;;6221991;28;20126;-78
2021/10/07 04:33:02;;;;;;;2.67;1.00;;;15.10;54.30;;;;;;6220011;28;20124;-79
2021/10/07 04:36:03;;;;;;;1.35;0.70;;;15.10;54.40;;;;;;6220454;28;20157;-78
2021/10/07 04:39:03;;;;;;;5.47;1.05;;;15.00;54.40;;;;;;6221232;28;20041;-78
2021/10/07 04:42:04;;;;;;;0.80;0.45;;;15.00;54.40;;;;;;6205613;28;20149;-79
2021/10/07 04:45:06;;;;;;;0.85;0.38;;;15.00;54.50;;;;;;6214686;28;20061;-79
2021/10/07 04:48:07;;;;;;;1.35;0.60;;;15.00;54.60;;;;;;6224700;28;20048;-79
2021/10/07 04:51:08;;;;;;;5.20;1.02;;;15.00;54.60;;;;;;6221096;28;20046;-79
2021/10/07 04:54:08;;;;;;;3.28;0.70;;;15.00;54.80;;;;;;6222199;28;20124;-80
2021/10/07 04:57:09;;;;;;;3.38;0.80;;;15.00;54.60;;;;;;6218917;28;20137;-79
2021/10/07 05:00:12;;;;;;;1.35;0.70;;;15.00;54.60;;;;;;6201873;28;20416;-80
2021/10/07 05:03:14;;;;;;;3.83;0.80;;;15.00;54.50;;;;;;6203248;28;20096;-79
2021/10/07 05:06:15;;;;;;;1.80;0.65;;;15.00;54.50;;;;;;6196430;28;20041;-79
2021/10/07 05:09:17;;;;;;;2.60;1.10;;;15.00;54.50;;;;;;6226016;28;20042;-80
2021/10/07 05:12:17;;;;;;;0.50;0.50;;;15.00;54.60;;;;;;6216050;28;20042;-80
2021/10/07 05:15:21;;;;;;;4.40;1.00;;;15.00;54.70;;;;;;6198427;28;20464;-80
2021/10/07 05:18:22;;;;;;;5.10;0.68;;;14.90;54.70;;;;;;6207056;28;20486;-80
2021/10/07 05:21:23;;;;;;;3.08;1.00;;;14.90;54.80;;;;;;6225917;28;20110;-78
2021/10/07 05:24:24;;;;;;;0.98;0.60;;;14.90;54.80;;;;;;6225701;28;20026;-78
2021/10/07 05:27:25;;;;;;;1.58;0.80;;;14.90;54.80;;;;;;6189536;28;20070;-79
2021/10/07 05:30:26;;;;;;;3.35;0.77;;;14.90;54.90;;;;;;6202363;28;20026;-80
2021/10/07 05:33:26;;;;;;;2.00;0.75;;;14.90;54.90;;;;;;6212181;28;20046;-80
2021/10/07 05:36:29;;;;;;;3.40;0.98;;;14.80;54.90;;;;;;6202341;28;20463;-79
2021/10/07 05:39:30;;;;;;;2.20;0.75;;;14.80;55.10;;;;;;6196417;28;20407;-78
2021/10/07 05:42:31;;;;;;;6.35;1.02;;;14.80;55.30;;;;;;6201863;28;20047;-80
2021/10/07 05:45:32;;;;;;;0.93;0.80;;;14.80;55.40;;;;;;6208777;28;20037;-79
2021/10/07 05:48:34;;;;;;;4.07;0.80;;;14.70;55.50;;;;;;6213784;28;20084;-79
2021/10/07 05:51:34;;;;;;;2.05;0.95;;;14.70;55.60;;;;;;6202648;28;20045;-79
2021/10/07 05:54:35;;;;;;;4.50;1.50;;;14.70;55.70;;;;;;6201292;28;20030;-79
2021/10/07 05:57:36;;;;;;;1.48;0.90;;;14.70;56.00;;;;;;6199787;28;20122;-80
2021/10/07 06:00:38;;;;;;;1.20;1.05;;;14.70;56.20;;;;;;6201663;28;20066;-81
2021/10/07 06:03:38;;;;;;;1.75;0.98;;;14.60;56.30;;;;;;6201404;28;20117;-79
2021/10/07 06:06:39;;;;;;;4.72;0.93;;;14.60;56.40;;;;;;6201931;28;20034;-79
2021/10/07 06:09:40;;;;;;;7.55;0.90;;;14.50;56.50;;;;;;6201676;28;20038;-80
2021/10/07 06:12:43;;;;;;;7.20;1.00;;;14.50;56.50;;;;;;6192138;28;20129;-80
2021/10/07 06:15:44;;;;;;;1.17;0.70;;;14.50;56.50;;;;;;6224552;28;20038;-80
2021/10/07 06:18:47;;;;;;;2.03;1.02;;;14.50;56.50;;;;;;6207702;28;20494;-79
2021/10/07 06:21:49;;;;;;;2.42;0.82;;;14.50;56.50;;;;;;6202794;28;20027;-79
2021/10/07 06:24:50;;;;;;;2.17;1.00;;;14.50;56.50;;;;;;6193706;28;20030;-80
2021/10/07 06:27:51;;;;;;;1.83;1.05;;;14.60;56.50;;;;;;6217417;28;20123;-79
2021/10/07 06:30:52;;;;;;;0.70;0.68;;;14.60;56.50;;;;;;6185668;28;20085;-80
2021/10/07 06:33:53;;;;;;;1.83;0.90;;;14.60;56.40;;;;;;6198990;28;20380;-80
2021/10/07 06:36:54;;;;;;;4.18;0.85;;;14.70;56.30;;;;;;6198877;28;20074;-80
2021/10/07 06:39:55;;;;;;;2.70;0.95;;;14.80;56.20;;;;;;6222489;28;20099;-79
2021/10/07 06:42:56;;;;;;;0.80;0.60;;;14.80;56.10;;;;;;6224780;28;20030;-79
2021/10/07 06:45:57;;;;;;;2.28;0.60;;;14.90;56.00;;;;;;6223621;28;20387;-79
2021/10/07 06:48:58;;;;;;;1.30;0.88;;;15.00;55.90;;;;;;6223613;28;20052;-80
2021/10/07 06:52:00;;;;;;;1.95;0.73;;;15.00;55.70;;;;;;6215290;28;20034;-78
2021/10/07 06:55:04;;;;;;;4.97;0.85;;;15.00;55.60;;;;;;6227802;28;20038;-79
2021/10/07 06:58:06;;;;;;;1.25;0.75;;;15.10;55.60;;;;;;6213362;28;20530;-79
2021/10/07 07:01:07;;;;;;;2.40;0.85;;;15.10;55.50;;;;;;6208400;28;20363;-79
2021/10/07 07:04:14;;;;;;;3.00;0.88;;;15.20;55.40;;;;;;6216395;28;20084;-79
2021/10/07 07:07:14;;;;;;;1.63;0.93;;;15.30;55.40;;;;;;6200621;28;20038;-80
2021/10/07 07:10:18;;;;;;;2.22;0.85;;;15.30;55.20;;;;;;6209586;28;20061;-80
2021/10/07 07:13:19;;;;;;;6.32;1.23;;;15.40;55.20;;;;;;6221832;28;20084;-80
2021/10/07 07:16:20;;;;;;;1.77;0.85;;;15.50;55.10;;;;;;6214873;28;20502;-80
2021/10/07 07:19:21;;;;;;;1.20;0.70;;;15.60;55.00;;;;;;6218596;28;20065;-80
2021/10/07 07:22:22;;;;;;;4.22;0.88;;;15.70;54.70;;;;;;6219693;28;20037;-80
2021/10/07 07:25:23;;;;;;;1.63;0.68;;;15.80;54.70;;;;;;6225187;28;20030;-79
2021/10/07 07:28:25;;;;;;;3.15;0.85;;;15.80;54.60;;;;;;6193559;28;20053;-79
2021/10/07 07:31:26;;;;;;;3.53;1.02;;;15.90;54.40;;;;;;6208687;28;20038;-78
2021/10/07 07:34:27;;;;;;;5.55;1.63;;;16.00;54.30;;;;;;6189999;28;20047;-81
2021/10/07 07:37:28;;;;;;;3.75;1.23;;;16.20;54.10;;;;;;6202850;28;20053;-80
2021/10/07 07:40:30;;;;;;;3.85;1.13;;;16.30;54.00;;;;;;6210028;28;20048;-79
2021/10/07 07:43:31;;;;;;;5.18;1.23;;;16.40;53.80;;;;;;6224412;28;20046;-80
2021/10/07 07:46:33;;;;;;;1.73;1.00;;;16.50;53.70;;;;;;6225099;28;20096;-79
2021/10/07 07:49:34;;;;;;;4.50;1.92;;;16.40;53.60;;;;;;6205573;28;20486;-79
2021/10/07 07:52:35;;;;;;;2.42;0.70;;;16.40;53.60;;;;;;6189612;28;20026;-80
2021/10/07 07:55:37;;;;;;;3.88;0.98;;;16.40;53.60;;;;;;6223102;28;20049;-79
2021/10/07 07:58:38;;;;;;;1.48;0.93;;;16.40;53.40;;;;;;6182627;28;20034;-80
2021/10/07 08:01:41;;;;;;;2.58;0.70;;;16.40;53.50;;;;;;6199449;28;20034;-79
2021/10/07 08:04:42;;;;;;;1.38;0.70;;;16.50;53.50;;;;;;6198763;28;20367;-79
2021/10/07 08:07:44;;;;;;;1.90;0.73;;;16.60;53.40;;;;;;6222576;28;20096;-79
2021/10/07 08:10:44;;;;;;;3.38;0.85;;;16.70;53.10;;;;;;6222420;28;20499;-79
2021/10/07 08:13:45;;;;;;;2.30;0.80;;;16.60;53.00;;;;;;6206420;28;20095;-79
2021/10/07 08:16:48;;;;;;;1.77;1.45;;;16.70;53.10;;;;;;6206464;28;20041;-79
2021/10/07 08:19:49;;;;;;;2.85;0.75;;;16.70;52.80;;;;;;6221113;28;20096;-79
2021/10/07 08:22:50;;;;;;;1.75;0.70;;;16.80;52.70;;;;;;6213412;28;20062;-79
2021/10/07 08:25:51;;;;;;;0.95;0.70;;;16.90;52.50;;;;;;6217936;28;20044;-80
2021/10/07 08:28:52;;;;;;;4.32;0.82;;;17.00;52.40;;;;;;6205352;28;20035;-80
2021/10/07 08:31:53;;;;;;;0.95;0.63;;;17.00;52.20;;;;;;6198095;28;20034;-80
2021/10/07 08:34:54;;;;;;;0.93;0.80;;;17.10;52.10;;;;;;6182602;28;20042;-81
2021/10/07 08:37:55;;;;;;;2.85;1.05;;;17.00;52.00;;;;;;6198490;28;20162;-80
2021/10/07 08:40:56;;;;;;;1.88;0.70;;;17.00;51.90;;;;;;6197818;28;20038;-81
2021/10/07 08:43:57;;;;;;;3.00;0.90;;;17.10;52.10;;;;;;6198700;28;20038;-79
2021/10/07 08:46:59;;;;;;;11.40;1.13;;;17.10;51.90;;;;;;6204296;28;20073;-79
2021/10/07 08:50:00;;;;;;;1.08;0.70;;;17.10;51.80;;;;;;6197823;28;20046;-79
2021/10/07 08:53:01;;;;;;;0.98;0.70;;;17.20;51.60;;;;;;6199373;28;20034;-80
2021/10/07 08:56:05;;;;;;;3.78;1.05;;;17.30;51.50;;;;;;6200998;28;20073;-80
2021/10/07 08:59:06;;;;;;;1.85;0.55;;;17.40;51.30;;;;;;6201111;28;20031;-80
2021/10/07 09:02:22;;;;;;;2.00;0.65;;;17.60;51.00;;;;;;6199041;28;20349;-79
2021/10/07 09:05:26;;;;;;;1.63;0.82;;;17.70;50.80;;;;;;6198953;28;20026;-80
2021/10/07 09:08:28;;;;;;;1.98;0.90;;;17.90;50.30;;;;;;6200048;28;20030;-81
2021/10/07 09:11:30;;;;;;;3.33;0.88;;;18.00;50.00;;;;;;6198720;28;20034;-79
2021/10/07 09:14:34;;;;;;;5.45;0.80;;;18.10;49.70;;;;;;6200918;28;20125;-80
2021/10/07 09:17:36;;;;;;;2.65;0.90;;;18.20;49.50;;;;;;6214838;28;20034;-80
2021/10/07 09:20:44;;;;;;;4.85;1.00;;;18.30;49.40;;;;;;6192345;28;20053;-79
2021/10/07 09:23:45;;;;;;;1.63;1.00;;;18.30;49.10;;;;;;6197343;28;20038;-79
2021/10/07 09:26:47;;;;;;;6.45;1.13;;;18.30;48.90;;;;;;6181892;28;20045;-79
2021/10/07 09:30:00;;;;;;;2.85;1.00;;;18.30;48.70;;;;;;6197993;28;20042;-80
2021/10/07 09:33:01;;;;;;;2.30;0.40;;;18.30;48.80;;;;;;6200153;28;20447;-80
2021/10/07 09:36:13;;;;;;;1.17;0.60;;;18.30;48.80;;;;;;6199895;28;20038;-81
2021/10/07 09:39:14;;;;;;;2.83;0.80;;;18.30;48.80;;;;;;6199274;28;20053;-79
2021/10/07 09:42:22;;;;;;;2.40;0.60;;;18.40;48.80;;;;;;6201646;28;20038;-80
2021/10/07 09:45:33;;;;;;;2.60;0.93;;;18.40;48.80;;;;;;6201951;28;20029;-79
2021/10/07 09:48:43;;;;;;;2.95;1.02;;;18.50;48.80;;;;;;6185135;28;20030;-80
2021/10/07 09:51:53;;;;;;;2.28;0.93;;;18.50;48.40;;;;;;6210890;28;20490;-79
2021/10/07 09:54:56;;;;;;;1.50;0.90;;;18.60;48.20;;;;;;6174841;28;20174;-80
2021/10/07 09:58:02;;;;;;;2.38;1.15;;;18.60;48.00;;;;;;6200676;28;20050;-79
2021/10/07 10:01:03;;;;;;;3.58;1.20;;;18.60;47.90;;;;;;6182364;28;20397;-80
2021/10/07 10:04:05;;;;;;;2.22;1.05;;;18.60;47.90;;;;;;6186191;28;20057;-80
2021/10/07 10:07:06;;;;;;;4.75;1.00;;;18.80;48.00;;;;;;6220790;28;20049;-80
2021/10/07 10:10:07;;;;;;;1.33;0.77;;;18.80;47.80;;;;;;6222563;28;20462;-79
2021/10/07 10:13:09;;;;;;;3.20;0.82;;;18.90;47.60;;;;;;6223779;28;20034;-79
2021/10/07 10:16:10;;;;;;;1.35;0.80;;;19.10;47.50;;;;;;6222677;28;20467;-81
2021/10/07 10:19:13;;;;;;;4.97;0.80;;;19.30;47.10;;;;;;6221532;28;20053;-79
2021/10/07 10:22:14;;;;;;;3.13;0.80;;;19.60;46.50;;;;;;6218314;28;20049;-80
2021/10/07 10:25:15;;;;;;;1.27;0.80;;;19.80;46.00;;;;;;6181444;28;20038;-80
2021/10/07 10:28:16;;;;;;;1.85;0.90;;;20.10;45.70;;;;;;6197501;28;20105;-79
2021/10/07 10:31:30;;;;;;;4.28;0.63;;;20.20;45.10;;;;;;6178825;28;20482;-80
2021/10/07 10:34:44;;;;;;;1.02;0.52;;;20.40;44.90;;;;;;6187549;28;20038;-81
2021/10/07 10:37:56;;;;;;;2.45;0.95;;;20.50;44.80;;;;;;6198423;28;20034;-79
2021/10/07 10:41:09;;;;;;;1.55;0.88;;;20.70;44.60;;;;;;6220480;28;20046;-80
2021/10/07 10:44:30;;;;;;;2.08;0.85;;;20.80;44.10;;;;;;6206633;28;20045;-81
2021/10/07 10:47:45;;;;;;;1.40;0.75;;;20.90;43.90;;;;;;6199899;28;20042;-80
2021/10/07 10:51:00;;;;;;;1.98;0.60;;;21.10;43.80;;;;;;6199451;28;20508;-81
2021/10/07 10:54:05;;;;;;;1.88;0.90;;;21.30;43.60;;;;;;6200161;28;20097;-79
2021/10/07 10:57:05;;;;;;;1.13;0.98;;;21.30;43.10;;;;;;6183682;28;20043;-78
2021/10/07 11:00:30;;;;;;;2.20;0.88;;;21.50;43.00;;;;;;6201435;28;20080;-78
2021/10/07 11:03:32;;;;;;;0.90;0.60;;;21.70;42.90;;;;;;6182616;28;20480;-80
2021/10/07 11:07:12;;;;;;;1.23;0.60;;;22.00;42.30;;;;;;6197335;28;20085;-79
2021/10/07 11:10:26;;;;;;;6.20;0.95;;;22.10;41.90;;;;;;6196286;28;20034;-79
2021/10/07 11:13:33;;;;;;;1.42;0.60;;;22.30;41.30;;;;;;6168973;28;20145;-80
2021/10/07 11:16:34;;;;;;;1.30;0.50;;;22.30;41.20;;;;;;6194736;28;20080;-81
2021/10/07 11:19:35;;;;;;;2.10;0.80;;;22.30;41.00;;;;;;6208359;28;20340;-79
2021/10/07 11:22:36;;;;;;;5.70;0.90;;;22.50;40.40;;;;;;6208207;28;20030;-79
2021/10/07 11:25:49;;;;;;;3.97;1.17;;;22.70;40.10;;;;;;6197084;28;20471;-81
2021/10/07 11:28:52;;;;;;;2.72;0.55;;;22.80;40.10;;;;;;6196477;28;20141;-81
2021/10/07 11:31:53;;;;;;;0.98;0.70;;;23.10;39.50;;;;;;6208867;28;20454;-79
2021/10/07 11:35:02;;;;;;;4.15;0.95;;;23.20;39.00;;;;;;6198267;28;20073;-80
2021/10/07 11:38:09;;;;;;;2.83;0.85;;;23.20;39.00;;;;;;6202218;28;20041;-79
2021/10/07 11:41:12;;;;;;;1.05;0.70;;;23.20;39.00;;;;;;6219126;28;20477;-79
2021/10/07 11:44:13;;;;;;;0.88;0.68;;;23.40;38.50;;;;;;6218866;28;20374;-80
2021/10/07 11:47:23;;;;;;;2.72;0.50;;;23.30;38.40;;;;;;6196702;28;20132;-81
2021/10/07 11:50:25;;;;;;;1.38;0.57;;;23.20;38.60;;;;;;6193695;28;20129;-79
2021/10/07 11:53:32;;;;;;;1.52;0.63;;;23.20;38.60;;;;;;6179459;28;20037;-80
2021/10/07 11:56:37;;;;;;;2.83;0.47;;;23.20;38.10;;;;;;6195972;28;20109;-80
2021/10/07 11:59:42;;;;;;;3.55;0.75;;;23.10;38.10;;;;;;6203142;28;20124;-79
2021/10/07 12:03:03;;;;;;;1.58;0.60;;;22.90;38.10;;;;;;6196898;28;20109;-80
2021/10/07 12:06:12;;;;;;;0.63;0.60;;;22.60;38.10;;;;;;6196912;28;20069;-80
2021/10/07 12:09:14;;;;;;;3.38;0.70;;;22.30;38.50;;;;;;6198966;28;20404;-79
2021/10/07 12:12:15;;;;;;;9.30;0.80;;;22.10;38.90;;;;;;6220197;28;20038;-79
2021/10/07 12:15:16;;;;;;;1.35;0.45;;;22.00;39.20;;;;;;6205223;28;20034;-80
2021/10/07 12:18:18;;;;;;;0.77;0.38;;;21.80;39.00;;;;;;6197468;28;20121;-80
2021/10/07 12:21:21;;;;;;;1.17;0.35;;;21.70;38.90;;;;;;6196798;28;20031;-81
2021/10/07 12:24:27;;;;;;;0.88;0.40;;;21.70;39.00;;;;;;6192987;28;20034;-80
2021/10/07 12:27:32;;;;;;;0.57;0.40;;;21.60;39.10;;;;;;6196495;28;20038;-81
2021/10/07 12:30:33;;;;;;;1.95;0.30;;;21.60;39.30;;;;;;6179804;28;20045;-80
2021/10/07 12:33:35;;;;;;;0.57;0.30;;;21.60;39.10;;;;;;6197463;28;20046;-80
2021/10/07 12:36:37;;;;;;;0.55;0.17;;;21.50;38.70;;;;;;6179919;28;20038;-80
2021/10/07 12:39:41;;;;;;;0.17;0.17;;;21.40;38.40;;;;;;6187587;28;20156;-80
2021/10/07 12:42:46;;;;;;;1.10;0.30;;;21.40;38.00;;;;;;6213841;28;20026;-79
2021/10/07 12:46:07;;;;;;;0.47;0.40;;;21.30;37.90;;;;;;6184596;28;20157;-79
2021/10/07 12:49:09;;;;;;;3.42;0.38;;;21.30;38.10;;;;;;6201480;28;20320;-80
2021/10/07 12:52:29;;;;;;;3.15;0.47;;;21.20;38.00;;;;;;6222447;28;20034;-79
2021/10/07 12:55:30;;;;;;;3.55;0.50;;;21.20;38.30;;;;;;6196450;28;20038;-79
2021/10/07 12:58:30;;;;;;;2.85;0.40;;;21.20;38.60;;;;;;6215016;28;20069;-79
2021/10/07 13:01:39;;;;;;;3.92;0.43;;;21.10;38.60;;;;;;6203078;28;20052;-79
2021/10/07 13:04:46;;;;;;;0.30;0.30;;;21.10;38.50;;;;;;6218557;28;20044;-80
2021/10/07 13:07:49;;;;;;;0.73;0.40;;;21.00;38.40;;;;;;6205734;28;20140;-80
2021/10/07 13:10:50;;;;;;;0.70;0.43;;;21.00;38.40;;;;;;6218783;28;20049;-79
2021/10/07 13:13:51;;;;;;;0.57;0.43;;;21.00;38.60;;;;;;6227420;28;20042;-80
2021/10/07 13:16:52;;;;;;;1.02;0.40;;;21.00;38.50;;;;;;6223692;28;20034;-80
2021/10/07 13:19:53;;;;;;;3.72;0.30;;;21.00;38.30;;;;;;6215396;28;20050;-80
2021/10/07 13:22:54;;;;;;;0.68;0.35;;;21.00;38.20;;;;;;6216441;28;20095;-80
2021/10/07 13:25:54;;;;;;;1.73;0.40;;;21.00;37.90;;;;;;6212636;28;20035;-81
2021/10/07 13:28:55;;;;;;;0.65;0.20;;;21.00;37.80;;;;;;6196196;28;20058;-80
2021/10/07 13:31:57;;;;;;;1.45;0.40;;;21.00;37.70;;;;;;6208076;28;20158;-79
2021/10/07 13:34:59;;;;;;;1.05;0.30;;;21.00;37.60;;;;;;6221146;28;20030;-79
2021/10/07 13:38:01;;;;;;;0.90;0.30;;;21.10;37.60;;;;;;6210972;28;20375;-79
2021/10/07 13:41:02;;;;;;;0.05;0.05;;;21.10;37.70;;;;;;6200583;28;20045;-78
2021/10/07 13:44:03;;;;;;;0.77;0.22;;;21.20;37.50;;;;;;6217486;28;20398;-79
2021/10/07 13:47:04;;;;;;;1.15;0.30;;;21.20;37.30;;;;;;6216272;28;20034;-80
2021/10/07 13:50:06;;;;;;;1.38;0.50;;;21.30;37.40;;;;;;6209265;28;20097;-80
2021/10/07 13:53:07;;;;;;;0.55;0.20;;;21.40;37.40;;;;;;6183018;28;20050;-79
2021/10/07 13:56:08;;;;;;;3.40;0.30;;;21.40;37.10;;;;;;6200241;28;20054;-79
2021/10/07 13:59:09;;;;;;;0.20;0.20;;;21.50;36.90;;;;;;6192309;28;20093;-78
2021/10/07 14:02:10;;;;;;;0.13;0.13;;;21.50;36.60;;;;;;6181886;28;20038;-79
2021/10/07 14:05:11;;;;;;;0.60;0.32;;;21.60;36.50;;;;;;6201195;28;20046;-81
2021/10/07 14:08:13;;;;;;;0.90;0.30;;;21.70;36.40;;;;;;6200768;28;20038;-80
2021/10/07 14:11:16;;;;;;;0.38;0.22;;;21.70;36.30;;;;;;6211372;28;20070;-80
2021/10/07 14:14:16;;;;;;;4.13;0.40;;;21.80;36.00;;;;;;6173555;28;20038;-79
2021/10/07 14:17:18;;;;;;;2.58;0.43;;;21.80;36.00;;;;;;6212182;28;20041;-79
2021/10/07 14:20:19;;;;;;;0.88;0.30;;;21.80;35.80;;;;;;6203771;28;20066;-79
2021/10/07 14:23:20;;;;;;;0.20;0.20;;;21.70;35.90;;;;;;6212449;28;20110;-79
2021/10/07 14:26:21;;;;;;;0.30;0.30;;;21.60;36.10;;;;;;6217250;28;20034;-79
2021/10/07 14:29:23;;;;;;;0.30;0.30;;;21.60;36.20;;;;;;6218222;28;20099;-80
2021/10/07 14:32:25;;;;;;;0.47;0.47;;;21.60;36.20;;;;;;6198758;28;20543;-79
2021/10/07 14:35:26;;;;;;;0.32;0.30;;;21.70;36.30;;;;;;6183587;28;20039;-80
2021/10/07 14:38:28;;;;;;;1.95;0.20;;;21.70;36.10;;;;;;6190439;28;20042;-81
2021/10/07 14:41:30;;;;;;;0.65;0.30;;;21.70;36.00;;;;;;6207232;28;20053;-79
2021/10/07 14:44:31;;;;;;;1.63;0.35;;;21.60;36.10;;;;;;6229649;28;20029;-78
2021/10/07 14:47:32;;;;;;;1.77;0.30;;;21.50;36.00;;;;;;6227211;28;20111;-80
2021/10/07 14:50:33;;;;;;;0.63;0.32;;;21.40;36.30;;;;;;6209057;28;20038;-80
2021/10/07 14:53:35;;;;;;;0.57;0.50;;;21.30;36.20;;;;;;6215419;28;20148;-80
2021/10/07 14:56:36;;;;;;;2.65;0.60;;;21.20;36.20;;;;;;6183511;28;20030;-79
2021/10/07 14:59:36;;;;;;;0.68;0.30;;;21.10;36.20;;;;;;6198341;28;20049;-79
2021/10/07 15:02:40;;;;;;;0.25;0.15;;;21.10;36.20;;;;;;6200321;28;20085;-78
2021/10/07 15:05:41;;;;;;;0.28;0.20;;;21.00;36.30;;;;;;6215389;28;20091;-78
2021/10/07 15:08:42;;;;;;;1.02;0.10;;;20.90;36.20;;;;;;6206448;28;20352;-79
2021/10/07 15:11:42;;;;;;;3.53;0.30;;;20.90;36.40;;;;;;6216465;28;20049;-80
2021/10/07 15:14:43;;;;;;;1.40;0.60;;;20.80;36.40;;;;;;6245749;28;20044;-80
2021/10/07 15:17:45;;;;;;;3.30;0.50;;;20.80;36.50;;;;;;6222549;28;20049;-80
2021/10/07 15:20:47;;;;;;;0.82;0.30;;;20.80;36.80;;;;;;6224997;28;20091;-79
2021/10/07 15:23:48;;;;;;;0.55;0.20;;;20.80;36.70;;;;;;6203539;28;20043;-80
2021/10/07 15:26:49;;;;;;;0.70;0.30;;;20.80;36.80;;;;;;6211429;28;20034;-80
2021/10/07 15:29:50;;;;;;;0.30;0.15;;;20.70;37.00;;;;;;6202544;28;20042;-80
2021/10/07 15:32:51;;;;;;;0.40;0.28;;;20.70;37.20;;;;;;6207104;28;20030;-80
2021/10/07 15:35:54;;;;;;;3.33;0.20;;;20.70;37.20;;;;;;6181864;28;20085;-80
2021/10/07 15:38:55;;;;;;;0.40;0.40;;;20.70;37.20;;;;;;6194878;28;20128;-80
2021/10/07 15:41:56;;;;;;;0.52;0.30;;;20.70;37.20;;;;;;6199399;28;20339;-80
2021/10/07 15:44:58;;;;;;;0.98;0.50;;;20.80;37.20;;;;;;6192374;28;20041;-79
2021/10/07 15:47:59;;;;;;;0.50;0.30;;;20.80;37.10;;;;;;6222239;28;20057;-79
2021/10/07 15:51:00;;;;;;;0.20;0.20;;;20.80;37.20;;;;;;6222867;28;20046;-80
2021/10/07 15:54:01;;;;;;;1.70;0.20;;;20.80;37.10;;;;;;6202876;28;20398;-79
2021/10/07 15:57:02;;;;;;;0.32;0.20;;;20.90;36.90;;;;;;6199068;28;20052;-79